createdAt,value
2022-12-26T05:00:32.049Z,5.30
2022-12-26T05:11:36.904Z,2.60
2022-12-26T05:22:36.769Z,2.30
2022-12-26T05:33:36.654Z,2.20
2022-12-26T05:44:36.519Z,2.70
2022-12-26T05:55:36.452Z,2.50
2022-12-26T06:06:36.272Z,2.30
2022-12-26T06:17:36.145Z,2.50
2022-12-26T06:28:36.018Z,2.50
2022-12-26T06:39:35.888Z,2.60
2022-12-26T06:50:35.768Z,2.60
2022-12-26T07:01:35.872Z,3.30
2022-12-26T07:12:35.580Z,2.60
2022-12-26T07:23:35.457Z,2.40
2022-12-26T07:34:35.269Z,2.30
2022-12-26T07:45:38.066Z,2.70
2022-12-26T07:56:35.017Z,2.40
2022-12-26T08:07:34.909Z,2.30
2022-12-26T08:18:34.785Z,2.70
2022-12-26T08:29:34.673Z,2.90
2022-12-26T08:40:43.542Z,2.80
2022-12-26T08:51:34.481Z,2.90
2022-12-26T09:02:34.430Z,2.30
2022-12-26T09:13:34.173Z,3.50
2022-12-26T09:24:34.015Z,3.10
2022-12-26T09:35:33.897Z,2.60
2022-12-26T09:46:33.919Z,2.00
2022-12-26T09:57:34.658Z,1.70
2022-12-26T10:08:33.560Z,2.30
2022-12-26T10:19:33.397Z,2.00
2022-12-26T10:30:33.270Z,1.50
2022-12-26T10:41:33.168Z,2.40
2022-12-26T10:52:33.018Z,2.00
2022-12-26T11:03:32.958Z,1.50
2022-12-26T11:14:33.967Z,1.50
2022-12-26T11:25:32.641Z,1.70
2022-12-26T11:36:32.511Z,2.10
2022-12-26T11:47:32.438Z,1.80
2022-12-26T11:58:33.262Z,1.80
2022-12-26T12:09:32.159Z,1.40
2022-12-26T12:20:32.033Z,1.60
2022-12-26T12:31:31.968Z,1.40
2022-12-26T12:42:31.773Z,1.30
2022-12-26T12:53:31.646Z,1.80
2022-12-26T13:04:31.519Z,1.50
2022-12-26T13:15:31.399Z,1.60
2022-12-26T13:26:31.286Z,1.70
2022-12-26T13:37:31.158Z,1.40
2022-12-26T13:48:31.030Z,2.10
2022-12-26T13:59:30.905Z,1.60
2022-12-26T14:10:30.796Z,1.40
2022-12-26T14:21:30.696Z,0.90
2022-12-26T14:32:30.591Z,1.20
2022-12-26T14:43:30.434Z,1.10
2022-12-26T14:54:30.323Z,1.70
2022-12-26T15:05:31.154Z,1.30
2022-12-26T15:16:30.040Z,1.70
2022-12-26T15:27:29.923Z,1.40
2022-12-26T15:38:30.784Z,1.50
2022-12-26T15:49:29.666Z,1.80
2022-12-26T16:00:29.539Z,3.20
2022-12-26T16:11:29.432Z,1.30
2022-12-26T16:22:29.314Z,1.30
2022-12-26T16:33:29.162Z,1.20
2022-12-26T16:44:30.713Z,0.80
2022-12-26T16:55:28.921Z,0.80
2022-12-26T17:06:28.786Z,1.00
2022-12-26T17:17:28.657Z,1.00
2022-12-26T17:28:28.547Z,1.20
2022-12-26T17:39:28.417Z,0.70
2022-12-26T17:50:28.299Z,0.80
2022-12-26T18:01:28.310Z,0.90
2022-12-26T18:12:28.023Z,0.70
2022-12-26T18:23:27.944Z,0.60
2022-12-26T18:34:27.805Z,0.70
2022-12-26T18:45:27.701Z,0.80
2022-12-26T18:56:27.543Z,1.20
2022-12-26T19:07:27.451Z,0.60
2022-12-26T19:18:27.305Z,0.80
2022-12-26T19:29:27.165Z,0.90
2022-12-26T19:40:27.034Z,1.00
2022-12-26T19:51:26.925Z,0.60
2022-12-26T20:02:26.826Z,1.00
2022-12-26T20:13:26.662Z,0.90
2022-12-26T20:24:26.581Z,1.20
2022-12-26T20:35:26.420Z,1.00
2022-12-26T20:46:26.323Z,0.60
2022-12-26T20:57:27.200Z,1.10
2022-12-26T21:08:26.057Z,0.60
2022-12-26T21:19:25.952Z,0.90
2022-12-26T21:30:25.797Z,1.00
2022-12-26T21:41:25.771Z,0.90
2022-12-26T21:52:25.548Z,1.20
